Time;durP1;ratioP1;P1;durP2;ratioP2;P2;SDS_P1;SDS_P2;PMS_P1;PMS_P2;Temp;Humidity;BMP_temperature;BMP_pressure;BME280_temperature;BME280_humidity;BME280_pressure;Samples;Min_cycle;Max_cycle;Signal;HPM_P1;HPM_P2
2023/04/05 00:03:05;;;;;;;38.08;20.85;;;;;;;10.60;99.78;99472.49;1770136;80;21219;-85
2023/04/05 00:06:11;;;;;;;32.00;21.00;;;;;;;10.49;99.71;99467.89;1766667;80;21755;-84
2023/04/05 00:09:30;;;;;;;32.05;20.90;;;;;;;10.47;100.00;99469.95;1768832;80;21815;-84
2023/04/05 00:12:35;;;;;;;35.20;22.52;;;;;;;10.41;100.00;99458.44;1767203;80;21252;-84
2023/04/05 00:15:41;;;;;;;33.63;22.48;;;;;;;10.20;100.00;99460.61;1767181;80;21223;-85
2023/04/05 00:18:50;;;;;;;36.55;22.73;;;;;;;10.25;100.00;99457.32;1766323;80;21292;-85
2023/04/05 00:21:58;;;;;;;40.15;24.32;;;;;;;10.24;100.00;99456.48;1766485;80;21197;-84
2023/04/05 00:25:03;;;;;;;38.13;23.77;;;;;;;10.26;100.00;99469.09;1769139;79;21276;-84
2023/04/05 00:28:09;;;;;;;34.58;22.65;;;;;;;10.10;100.00;99472.91;1767126;80;21723;-84
2023/04/05 00:31:15;;;;;;;39.30;25.17;;;;;;;9.96;100.00;99470.02;1767347;81;21208;-84
2023/04/05 00:34:19;;;;;;;46.02;25.35;;;;;;;10.03;100.00;99465.17;1767922;80;21736;-85
2023/04/05 00:37:25;;;;;;;41.28;24.72;;;;;;;9.94;100.00;99452.98;1766749;80;21189;-85
2023/04/05 00:40:31;;;;;;;41.37;26.68;;;;;;;9.92;100.00;99452.84;1767887;80;21173;-85
2023/04/05 00:43:38;;;;;;;42.00;26.70;;;;;;;9.88;100.00;99451.03;1767303;80;21252;-85
2023/04/05 00:46:44;;;;;;;40.78;24.77;;;;;;;9.69;100.00;99451.62;1767060;80;21189;-85
2023/04/05 00:49:50;;;;;;;41.88;26.42;;;;;;;9.82;100.00;99445.48;1768097;80;21770;-85
2023/04/05 00:52:57;;;;;;;40.92;26.93;;;;;;;9.85;100.00;99445.95;1766587;80;21196;-85
2023/04/05 00:56:06;;;;;;;43.75;25.75;;;;;;;9.81;100.00;99447.36;1767013;78;21196;-85
2023/04/05 00:59:12;;;;;;;41.37;25.82;;;;;;;9.87;100.00;99449.84;1768031;80;21731;-84
2023/04/05 01:02:38;;;;;;;50.58;27.67;;;;;;;9.90;100.00;99455.77;1769708;80;21208;-84
2023/04/05 01:06:19;;;;;;;44.98;28.98;;;;;;;9.53;100.00;99455.95;1766508;80;21212;-84
2023/04/05 01:09:54;;;;;;;54.00;27.65;;;;;;;9.46;100.00;99432.67;1766332;80;21268;-84
2023/04/05 01:13:00;;;;;;;51.80;28.32;;;;;;;9.23;100.00;99429.21;1768424;80;21204;-84
2023/04/05 01:16:05;;;;;;;41.13;27.70;;;;;;;9.42;100.00;99420.44;1767492;80;21251;-84
2023/04/05 01:19:12;;;;;;;47.27;30.12;;;;;;;9.41;100.00;99420.08;1766776;80;21365;-84
2023/04/05 01:22:44;;;;;;;53.05;29.72;;;;;;;9.33;100.00;99418.33;1765809;80;21184;-84
2023/04/05 01:26:23;;;;;;;44.35;29.00;;;;;;;9.32;100.00;99411.18;1767102;80;21212;-84
2023/04/05 01:29:47;;;;;;;47.08;29.82;;;;;;;9.17;100.00;99413.05;1768954;80;21287;-85
2023/04/05 01:33:03;;;;;;;48.73;30.62;;;;;;;9.28;100.00;99407.13;1769124;80;21179;-84
2023/04/05 01:36:17;;;;;;;48.75;28.52;;;;;;;9.26;100.00;99410.55;1767617;80;21795;-84
2023/04/05 01:39:35;;;;;;;51.30;29.95;;;;;;;9.12;100.00;99414.98;1767685;80;21775;-84
2023/04/05 01:42:41;;;;;;;52.40;29.55;;;;;;;9.17;100.00;99400.77;1608152;87;21227;-80
2023/04/05 01:45:48;;;;;;;49.27;29.92;;;;;;;9.15;100.00;99390.06;1658889;84;21275;-81
2023/04/05 01:48:55;;;;;;;47.95;28.45;;;;;;;9.04;100.00;99390.55;1670605;84;21276;-81
2023/04/05 01:52:01;;;;;;;45.83;28.90;;;;;;;9.13;100.00;99380.39;1668782;84;21247;-90
2023/04/05 01:55:09;;;;;;;53.55;29.30;;;;;;;9.25;100.00;99387.03;1667301;84;21272;-82
2023/04/05 01:58:14;;;;;;;47.85;28.15;;;;;;;9.18;100.00;99393.78;1663022;84;21307;-90
2023/04/05 02:01:20;;;;;;;55.03;28.77;;;;;;;9.22;100.00;99390.13;1672113;83;21188;-80
2023/04/05 02:04:27;;;;;;;51.28;30.15;;;;;;;9.19;100.00;99383.72;1668637;83;21276;-80
2023/04/05 02:07:34;;;;;;;49.53;29.32;;;;;;;9.02;100.00;99378.12;1672783;84;21248;-81
2023/04/05 02:10:40;;;;;;;49.60;28.30;;;;;;;8.90;100.00;99369.58;1667191;84;21204;-91
2023/04/05 02:13:45;;;;;;;46.75;28.05;;;;;;;8.88;100.00;99371.11;1677201;84;21196;-80
2023/04/05 02:16:56;;;;;;;49.85;28.52;;;;;;;8.88;100.00;99364.30;1675373;84;21820;-91
2023/04/05 02:20:07;;;;;;;49.10;28.25;;;;;;;8.87;100.00;99365.34;1673192;84;21253;-80
2023/04/05 02:23:08;;;;;;;50.58;28.00;;;;;;;9.00;100.00;99367.93;1689928;82;21772;-80
2023/04/05 02:26:14;;;;;;;45.35;28.75;;;;;;;8.77;100.00;99367.50;1692787;83;21211;-80
2023/04/05 02:29:21;;;;;;;45.17;28.80;;;;;;;8.76;100.00;99363.61;1685994;83;21207;-80
2023/04/05 02:32:27;;;;;;;47.50;28.55;;;;;;;8.83;100.00;99358.56;1688912;83;21216;-81
2023/04/05 02:35:33;;;;;;;53.00;29.45;;;;;;;8.73;100.00;99353.91;1686006;83;21247;-91
2023/04/05 02:38:42;;;;;;;49.98;28.42;;;;;;;8.76;100.00;99352.19;1687564;83;21559;-81
2023/04/05 02:41:48;;;;;;;55.03;30.80;;;;;;;8.69;100.00;99340.32;1682520;83;21952;-91
2023/04/05 02:44:55;;;;;;;58.68;31.25;;;;;;;8.67;100.00;99342.41;1693474;83;21655;-81
2023/04/05 02:48:01;;;;;;;55.63;29.67;;;;;;;8.57;100.00;99325.48;1677829;83;21270;-81
2023/04/05 02:51:06;;;;;;;52.85;30.15;;;;;;;8.56;100.00;99323.77;1687739;83;21244;-91
2023/04/05 02:54:12;;;;;;;52.13;30.75;;;;;;;8.42;100.00;99315.91;1683075;83;21194;-90
2023/04/05 02:57:21;;;;;;;46.25;29.20;;;;;;;8.50;100.00;99309.53;1664113;85;21288;-80
2023/04/05 03:00:29;;;;;;;48.23;29.72;;;;;;;8.59;100.00;99309.77;1629014;86;21331;-81
2023/04/05 03:03:35;;;;;;;51.60;29.82;;;;;;;8.59;100.00;99308.41;1680033;83;21231;-91
2023/04/05 03:06:45;;;;;;;47.10;30.68;;;;;;;8.67;100.00;99301.52;1654279;85;21280;-92
2023/04/05 03:09:50;;;;;;;50.33;30.57;;;;;;;8.63;100.00;99289.28;1688453;83;21218;-91
2023/04/05 03:12:58;;;;;;;53.52;30.95;;;;;;;8.50;100.00;99279.55;1681124;83;21213;-81
2023/04/05 03:16:04;;;;;;;47.38;30.60;;;;;;;8.48;100.00;99282.48;1679554;83;21297;-81
2023/04/05 03:19:10;;;;;;;51.95;31.37;;;;;;;8.48;100.00;99276.19;1686796;83;21321;-80
2023/04/05 03:22:19;;;;;;;48.83;29.77;;;;;;;8.54;100.00;99271.34;1692641;83;21221;-81
2023/04/05 03:25:25;;;;;;;52.50;30.57;;;;;;;8.59;100.00;99267.52;1681608;83;21234;-79
2023/04/05 03:28:43;;;;;;;44.30;30.12;;;;;;;8.51;100.00;99259.44;1692726;83;21186;-91
2023/04/05 03:31:44;;;;;;;52.48;30.92;;;;;;;8.36;100.00;99260.28;1684721;83;21265;-81
2023/04/05 03:34:50;;;;;;;47.00;30.62;;;;;;;8.23;100.00;99243.70;1661132;85;21235;-81
2023/04/05 03:37:56;;;;;;;53.58;32.05;;;;;;;8.29;100.00;99239.41;1658968;85;22476;-81
2023/04/05 03:41:04;;;;;;;50.10;30.23;;;;;;;8.38;100.00;99247.34;1644436;85;21246;-91
2023/04/05 03:44:09;;;;;;;49.27;30.40;;;;;;;8.57;100.00;99230.09;1687532;83;21217;-89
2023/04/05 03:47:15;;;;;;;49.77;30.50;;;;;;;8.70;100.00;99228.38;1692657;83;21274;-81
2023/04/05 03:50:23;;;;;;;46.13;29.10;;;;;;;8.68;100.00;99228.22;1694931;83;21211;-81
2023/04/05 03:53:30;;;;;;;52.43;29.50;;;;;;;8.95;100.00;99236.22;1689813;83;21213;-90
2023/04/05 03:56:36;;;;;;;46.35;30.20;;;;;;;8.95;100.00;99227.52;1684227;83;21232;-88
2023/04/05 03:59:43;;;;;;;44.55;28.92;;;;;;;8.82;100.00;99234.17;1661446;85;21186;-80
2023/04/05 04:03:03;;;;;;;45.98;27.37;;;;;;;8.78;100.00;99233.38;1685480;84;21215;-80
2023/04/05 04:06:12;;;;;;;41.05;26.97;;;;;;;8.71;100.00;99229.22;1665198;85;21270;-88
2023/04/05 04:09:21;;;;;;;49.65;29.32;;;;;;;8.86;100.00;99234.64;1666309;85;21269;-81
2023/04/05 04:12:28;;;;;;;43.98;26.75;;;;;;;8.91;100.00;99231.66;1684821;83;21255;-91
2023/04/05 04:15:36;;;;;;;41.60;27.05;;;;;;;8.81;100.00;99228.39;1687071;84;21235;-89
2023/04/05 04:18:53;;;;;;;44.55;27.30;;;;;;;9.02;100.00;99228.09;1668783;84;21220;-90
2023/04/05 04:21:59;;;;;;;46.70;25.08;;;;;;;9.02;100.00;99225.38;1694488;83;21204;-81
2023/04/05 04:25:09;;;;;;;41.77;25.45;;;;;;;9.13;100.00;99221.64;1681330;83;21195;-89
2023/04/05 04:28:23;;;;;;;44.93;26.25;;;;;;;9.15;100.00;99222.27;1665366;85;21222;-80
2023/04/05 04:31:48;;;;;;;44.93;25.30;;;;;;;9.08;100.00;99216.41;1685841;83;21222;-81
2023/04/05 04:34:57;;;;;;;39.08;24.67;;;;;;;9.20;100.00;99235.34;1686321;83;21246;-82
2023/04/05 04:38:19;;;;;;;46.35;22.58;;;;;;;9.38;100.00;99230.28;1659443;86;21287;-81
2023/04/05 04:41:43;;;;;;;37.17;22.27;;;;;;;9.46;100.00;99223.34;1692070;83;21297;-91
2023/04/05 04:45:05;;;;;;;34.60;20.15;;;;;;;9.56;100.00;99234.45;1606145;87;21224;-89
2023/04/05 04:48:16;;;;;;;39.67;21.90;;;;;;;9.60;100.00;99231.66;1683594;83;21226;-81
2023/04/05 04:51:23;;;;;;;37.17;20.57;;;;;;;9.87;100.00;99214.42;1698566;83;21208;-90
2023/04/05 04:54:32;;;;;;;34.43;21.02;;;;;;;9.88;100.00;99241.20;1690569;83;21239;-81
2023/04/05 04:57:37;;;;;;;32.80;19.02;;;;;;;9.78;100.00;99247.53;1686823;83;21226;-86
2023/04/05 05:00:45;;;;;;;33.40;19.98;;;;;;;9.92;100.00;99231.05;1685862;83;21230;-81
2023/04/05 05:03:51;;;;;;;31.82;20.23;;;;;;;9.99;100.00;99233.86;1652534;85;21224;-81
2023/04/05 05:07:00;;;;;;;26.48;17.37;;;;;;;10.03;100.00;99237.05;1687801;83;21295;-90
2023/04/05 05:10:06;;;;;;;38.92;17.48;;;;;;;10.02;100.00;99226.64;1684205;83;21250;-91
2023/04/05 05:13:13;;;;;;;29.50;17.75;;;;;;;10.27;99.51;99229.77;1686046;83;21230;-90
2023/04/05 05:16:20;;;;;;;34.13;16.10;;;;;;;10.32;99.29;99227.28;1685670;83;21248;-91
2023/04/05 05:19:26;;;;;;;24.02;16.17;;;;;;;10.40;98.15;99229.86;1667863;84;21593;-81
2023/04/05 05:22:32;;;;;;;27.22;16.57;;;;;;;10.54;97.36;99227.17;1639185;85;21225;-88
2023/04/05 05:25:37;;;;;;;31.10;17.30;;;;;;;10.59;97.29;99228.81;1629082;86;21243;-81
2023/04/05 05:28:44;;;;;;;30.88;16.45;;;;;;;10.77;96.55;99223.61;1638922;86;21707;-81
2023/04/05 05:31:52;;;;;;;25.97;17.05;;;;;;;10.72;95.99;99228.31;1637048;86;21262;-91
2023/04/05 05:34:58;;;;;;;25.43;14.70;;;;;;;10.83;96.47;99229.65;1687520;83;21197;-91
2023/04/05 05:38:04;;;;;;;26.20;16.02;;;;;;;11.01;95.89;99227.72;1678526;83;21679;-80
2023/04/05 05:41:11;;;;;;;29.18;15.53;;;;;;;10.97;96.31;99225.91;1688547;83;21827;-91
2023/04/05 05:44:16;;;;;;;26.55;16.48;;;;;;;11.08;96.18;99218.16;1657283;84;21171;-81
2023/04/05 05:47:22;;;;;;;27.60;14.90;;;;;;;11.25;96.41;99215.36;1653857;84;21212;-91
2023/04/05 05:50:31;;;;;;;23.40;14.25;;;;;;;11.37;95.73;99217.79;1651628;84;21219;-90
2023/04/05 05:53:37;;;;;;;25.30;12.47;;;;;;;11.44;95.41;99213.19;1679944;83;21301;-81
2023/04/05 05:56:41;;;;;;;24.02;12.07;;;;;;;11.64;95.06;99202.24;1655845;85;21242;-81
2023/04/05 05:59:48;;;;;;;27.55;11.30;;;;;;;11.81;92.63;99210.90;1647109;86;21259;-91
2023/04/05 06:02:57;;;;;;;23.90;9.20;;;;;;;11.89;92.82;99205.21;1643170;85;21233;-80
2023/04/05 06:06:07;;;;;;;23.52;8.83;;;;;;;12.14;92.20;99204.55;1641284;86;22518;-91
2023/04/05 06:09:12;;;;;;;20.02;9.68;;;;;;;12.44;89.64;99207.14;1646882;86;21974;-81
2023/04/05 06:12:20;;;;;;;19.82;8.53;;;;;;;12.52;88.25;99195.09;1651879;85;21262;-90
2023/04/05 06:15:26;;;;;;;32.50;11.33;;;;;;;12.59;85.19;99207.41;1677341;83;21232;-90
2023/04/05 06:18:33;;;;;;;33.18;14.45;;;;;;;12.70;83.13;99199.36;1693619;82;21195;-90
2023/04/05 06:21:39;;;;;;;22.80;9.78;;;;;;;12.74;83.26;99192.35;1696240;83;21902;-80
2023/04/05 06:24:46;;;;;;;24.72;8.40;;;;;;;12.81;83.12;99197.83;1683242;83;21325;-80
2023/04/05 06:27:51;;;;;;;16.65;7.97;;;;;;;12.87;82.47;99195.58;1677043;83;21256;-81
2023/04/05 06:30:58;;;;;;;22.65;7.20;;;;;;;12.89;81.86;99182.50;1657555;84;21842;-89
2023/04/05 06:34:05;;;;;;;26.57;8.63;;;;;;;12.95;82.38;99166.52;1690384;83;21322;-89
2023/04/05 06:37:12;;;;;;;24.85;8.55;;;;;;;13.03;80.50;99184.11;1646186;85;21193;-81
2023/04/05 06:40:17;;;;;;;26.35;7.83;;;;;;;13.00;80.88;99175.47;1684040;82;21213;-81
2023/04/05 06:43:23;;;;;;;22.67;9.43;;;;;;;12.96;81.63;99172.31;1684247;82;21181;-81
2023/04/05 06:46:29;;;;;;;29.00;9.43;;;;;;;13.04;80.40;99181.67;1703340;82;21231;-88
2023/04/05 06:49:34;;;;;;;33.55;9.35;;;;;;;13.07;80.44;99165.27;1662010;84;21823;-90
2023/04/05 06:52:39;;;;;;;21.25;9.63;;;;;;;13.20;80.59;99168.48;1660544;84;21274;-90
2023/04/05 06:55:44;;;;;;;37.55;10.98;;;;;;;13.17;81.39;99149.69;1627829;85;21232;-90
2023/04/05 06:58:50;;;;;;;35.83;10.15;;;;;;;13.36;82.81;99154.77;1679710;82;21200;-91
2023/04/05 07:01:56;;;;;;;24.05;9.58;;;;;;;13.68;81.83;99159.70;1678049;82;21195;-90
2023/04/05 07:05:04;;;;;;;35.00;10.63;;;;;;;13.69;80.18;99154.50;1679824;83;21219;-79
2023/04/05 07:08:10;;;;;;;26.52;9.45;;;;;;;13.62;80.54;99155.11;1654737;85;21195;-91
2023/04/05 07:11:17;;;;;;;24.05;10.00;;;;;;;13.48;81.19;99152.47;1684266;83;21227;-81
2023/04/05 07:14:23;;;;;;;33.67;11.00;;;;;;;13.47;81.95;99148.04;1653383;85;21741;-91
2023/04/05 07:17:30;;;;;;;23.57;11.50;;;;;;;13.45;80.31;99163.05;1617576;86;21756;-82
2023/04/05 07:20:37;;;;;;;24.80;10.45;;;;;;;13.50;80.30;99164.59;1623760;86;21260;-81
2023/04/05 07:23:43;;;;;;;24.72;9.30;;;;;;;13.57;80.58;99154.41;1679903;83;21224;-82
2023/04/05 07:26:48;;;;;;;23.95;10.23;;;;;;;13.54;80.61;99152.09;1655195;84;21338;-91
2023/04/05 07:29:56;;;;;;;26.80;9.83;;;;;;;13.51;81.86;99132.80;1640224;86;21282;-91
2023/04/05 07:33:03;;;;;;;20.45;10.05;;;;;;;13.61;80.99;99134.20;1688629;82;21812;-92
2023/04/05 07:36:08;;;;;;;21.77;9.58;;;;;;;13.68;79.89;99131.69;1687115;83;21242;-90
2023/04/05 07:39:15;;;;;;;20.77;11.08;;;;;;;13.83;79.57;99142.86;1685931;82;21193;-91
2023/04/05 07:42:21;;;;;;;21.82;9.25;;;;;;;13.83;80.18;99133.24;1668874;83;21301;-82
2023/04/05 07:45:26;;;;;;;20.95;8.98;;;;;;;14.02;80.09;99126.20;1622858;87;21870;-92
2023/04/05 07:48:32;;;;;;;28.00;9.90;;;;;;;14.02;80.75;99124.83;1674253;83;21304;-82
2023/04/05 07:51:38;;;;;;;21.93;9.55;;;;;;;14.09;79.52;99123.91;1654969;84;21318;-82
2023/04/05 07:54:44;;;;;;;19.23;8.73;;;;;;;14.10;79.66;99120.08;1642783;85;21270;-82
2023/04/05 07:57:51;;;;;;;20.55;8.80;;;;;;;14.15;80.03;99096.86;1647868;85;21274;-82
2023/04/05 08:00:57;;;;;;;15.48;8.05;;;;;;;14.09;78.73;99101.37;1651828;85;21588;-91
2023/04/05 08:04:02;;;;;;;23.02;9.20;;;;;;;14.09;78.43;99121.16;1654372;83;21199;-90
2023/04/05 08:07:09;;;;;;;31.95;9.93;;;;;;;14.01;78.52;99120.37;1633853;86;21286;-81
2023/04/05 08:10:17;;;;;;;28.80;9.18;;;;;;;14.11;77.35;99130.00;1618999;87;21229;-81
2023/04/05 08:13:23;;;;;;;23.62;9.00;;;;;;;14.23;78.11;99129.03;1626332;86;21235;-81
2023/04/05 08:16:29;;;;;;;19.85;9.50;;;;;;;14.29;78.84;99134.98;1679274;83;21250;-80
2023/04/05 08:19:35;;;;;;;20.23;8.00;;;;;;;14.45;77.19;99122.54;1687410;84;21286;-90
2023/04/05 08:22:40;;;;;;;31.37;9.18;;;;;;;14.71;78.03;99143.94;1684241;83;21191;-90
2023/04/05 08:25:47;;;;;;;33.23;8.78;;;;;;;14.82;78.54;99128.88;1664645;84;21199;-80
2023/04/05 08:28:52;;;;;;;22.70;6.83;;;;;;;15.21;76.30;99107.33;1686942;83;22147;-81
2023/04/05 08:32:01;;;;;;;21.60;7.67;;;;;;;15.26;75.69;99150.70;1679810;82;21201;-90
2023/04/05 08:35:06;;;;;;;32.90;7.53;;;;;;;15.39;72.45;99134.52;1685098;83;21194;-90
2023/04/05 08:38:13;;;;;;;19.60;6.35;;;;;;;15.31;69.98;99142.56;1669807;83;21872;-81
2023/04/05 08:41:27;;;;;;;25.37;8.00;;;;;;;15.16;72.60;99142.17;1675958;83;21174;-88
2023/04/05 08:44:33;;;;;;;20.85;6.30;;;;;;;15.20;72.64;99142.00;1688534;82;21741;-90
2023/04/05 08:47:39;;;;;;;21.10;6.78;;;;;;;15.48;71.63;99146.84;1690917;82;21154;-90
2023/04/05 08:50:44;;;;;;;11.45;5.42;;;;;;;15.56;70.47;99154.77;1686785;82;21228;-81
2023/04/05 08:53:50;;;;;;;32.28;6.37;;;;;;;15.39;70.56;99143.61;1670992;83;21198;-81
2023/04/05 08:56:55;;;;;;;19.35;5.95;;;;;;;15.37;70.73;99145.75;1686253;84;21186;-81
2023/04/05 09:00:01;;;;;;;19.70;5.35;;;;;;;15.41;69.89;99144.20;1677807;83;21551;-81
2023/04/05 09:03:08;;;;;;;26.97;6.15;;;;;;;15.17;72.00;99156.23;1696001;82;21171;-81
2023/04/05 09:06:15;;;;;;;22.32;5.33;;;;;;;15.18;73.67;99160.13;1687278;82;21473;-90
2023/04/05 09:09:20;;;;;;;19.62;5.37;;;;;;;15.08;75.06;99157.93;1693998;82;22196;-82
2023/04/05 09:12:30;;;;;;;19.82;5.05;;;;;;;14.97;74.50;99165.62;1681652;83;21205;-90
2023/04/05 09:15:36;;;;;;;25.23;5.30;;;;;;;14.84;74.94;99165.79;1695031;83;21229;-90
2023/04/05 09:18:42;;;;;;;26.75;5.87;;;;;;;14.82;75.59;99158.31;1682196;83;21221;-81
2023/04/05 09:22:17;;;;;;;33.38;5.80;;;;;;;14.88;74.07;99171.14;1670455;83;21341;-89
2023/04/05 09:25:45;;;;;;;33.75;6.30;;;;;;;14.94;73.59;99166.61;1617004;87;21280;-89
2023/04/05 09:28:50;;;;;;;16.15;4.85;;;;;;;14.96;72.61;99168.58;1682204;83;21804;-80
2023/04/05 09:31:56;;;;;;;35.43;5.62;;;;;;;14.86;73.06;99171.89;1677231;82;21787;-90
2023/04/05 09:35:03;;;;;;;32.67;6.67;;;;;;;14.84;72.37;99189.19;1651993;84;22040;-81
2023/04/05 09:38:10;;;;;;;26.02;5.12;;;;;;;14.83;71.55;99186.14;1636853;86;21355;-91
2023/04/05 09:41:17;;;;;;;32.60;6.20;;;;;;;14.87;71.01;99199.75;1681352;83;23275;-81
2023/04/05 09:44:23;;;;;;;33.83;6.70;;;;;;;14.83;70.76;99191.11;1673321;83;21726;-81
2023/04/05 09:47:33;;;;;;;24.43;5.95;;;;;;;14.79;71.21;99202.81;1673226;83;21888;-81
2023/04/05 09:50:40;;;;;;;28.42;7.00;;;;;;;14.81;70.66;99211.13;1672733;83;21651;-81
2023/04/05 09:54:04;;;;;;;37.33;7.05;;;;;;;14.84;71.00;99211.21;1684868;82;21786;-82
2023/04/05 09:57:10;;;;;;;27.52;6.65;;;;;;;14.88;70.81;99216.56;1630178;86;21245;-92
2023/04/05 10:00:27;;;;;;;38.80;6.33;;;;;;;14.78;71.13;99216.27;1677908;82;21202;-91
2023/04/05 10:03:34;;;;;;;30.20;6.28;;;;;;;14.78;71.32;99219.02;1670099;83;21212;-81
2023/04/05 10:06:48;;;;;;;34.13;6.95;;;;;;;14.75;72.24;99222.23;1656150;84;21791;-81
2023/04/05 10:09:55;;;;;;;25.50;8.25;;;;;;;14.67;72.38;99220.61;1651395;85;21202;-81
2023/04/05 10:13:00;;;;;;;38.38;6.35;;;;;;;14.77;72.17;99213.19;1630047;85;21188;-81
2023/04/05 10:16:07;;;;;;;26.55;6.30;;;;;;;14.71;72.82;99212.74;1655239;84;21269;-81
2023/04/05 10:19:13;;;;;;;40.63;7.58;;;;;;;14.68;73.00;99210.44;1651171;84;21228;-81
2023/04/05 10:22:23;;;;;;;39.75;6.87;;;;;;;14.65;73.42;99199.91;1685208;82;21221;-81
2023/04/05 10:25:59;;;;;;;34.92;6.65;;;;;;;14.53;73.23;99199.81;1684370;83;21216;-91
2023/04/05 10:29:08;;;;;;;39.83;6.45;;;;;;;14.57;72.19;99192.79;1644499;85;21227;-81
2023/04/05 10:32:27;;;;;;;36.70;6.35;;;;;;;14.47;71.71;99204.30;1688391;83;21215;-90
2023/04/05 10:35:41;;;;;;;28.95;5.97;;;;;;;14.41;72.44;99194.22;1628184;85;21224;-90
2023/04/05 10:39:12;;;;;;;59.18;7.37;;;;;;;14.33;73.22;99192.59;1685872;83;21180;-80
2023/04/05 10:42:27;;;;;;;45.78;7.03;;;;;;;14.25;74.31;99186.00;1648067;84;21264;-92
2023/04/05 10:45:33;;;;;;;49.13;7.45;;;;;;;14.20;75.57;99172.64;1687913;84;21189;-80
2023/04/05 10:48:57;;;;;;;55.52;7.37;;;;;;;14.06;75.47;99184.30;1670269;83;21199;-81
2023/04/05 10:52:03;;;;;;;40.95;7.85;;;;;;;14.08;76.70;99174.47;1675871;83;21231;-79
2023/04/05 10:55:08;;;;;;;43.35;6.95;;;;;;;13.96;78.17;99166.95;1673835;84;21372;-80
2023/04/05 10:58:15;;;;;;;40.80;6.92;;;;;;;13.94;79.66;99167.72;1673702;83;21201;-79
2023/04/05 11:01:20;;;;;;;51.28;7.03;;;;;;;13.98;80.88;99156.58;1619697;86;21828;-79
2023/04/05 11:04:27;;;;;;;40.52;7.78;;;;;;;13.90;81.62;99155.48;1677447;83;21186;-90
2023/04/05 11:07:32;;;;;;;36.45;6.90;;;;;;;13.86;82.53;99152.88;1670569;82;21236;-79
2023/04/05 11:10:40;;;;;;;41.20;7.08;;;;;;;13.77;83.32;99149.58;1690412;84;21220;-79
2023/04/05 11:13:59;;;;;;;38.30;8.18;;;;;;;13.68;84.89;99140.47;1683035;83;21194;-91
2023/04/05 11:17:05;;;;;;;35.25;6.83;;;;;;;13.62;86.17;99142.21;1677250;83;21216;-91
2023/04/05 11:20:12;;;;;;;56.83;7.58;;;;;;;13.66;86.80;99121.47;1638078;86;21582;-89
2023/04/05 11:23:17;;;;;;;33.10;7.40;;;;;;;13.67;87.16;99114.06;1685367;83;21173;-88
2023/04/05 11:26:23;;;;;;;59.88;8.43;;;;;;;13.66;87.37;99109.64;1690329;83;21233;-80
2023/04/05 11:29:49;;;;;;;38.95;7.42;;;;;;;13.69;87.54;99105.91;1659044;84;21223;-81
2023/04/05 11:32:55;;;;;;;47.23;7.60;;;;;;;13.70;87.91;99112.24;1671230;83;21211;-81
2023/04/05 11:36:09;;;;;;;40.95;7.30;;;;;;;13.72;88.60;99119.18;1689187;84;21847;-81
2023/04/05 11:39:29;;;;;;;42.88;7.05;;;;;;;13.76;89.56;99114.08;1688228;83;21258;-82
2023/04/05 11:42:35;;;;;;;38.67;7.72;;;;;;;13.83;90.25;99117.59;1694840;83;21175;-81
2023/04/05 11:45:42;;;;;;;37.48;7.00;;;;;;;13.91;90.36;99124.17;1686441;82;21173;-89
2023/04/05 11:48:47;;;;;;;40.50;9.35;;;;;;;14.11;88.96;99130.84;1671133;83;21243;-89
2023/04/05 11:51:54;;;;;;;53.05;6.85;;;;;;;14.23;87.77;99133.69;1671917;83;21207;-89
2023/04/05 11:54:59;;;;;;;25.12;6.12;;;;;;;14.25;87.73;99131.53;1696257;82;21802;-82
2023/04/05 11:58:05;;;;;;;27.45;6.25;;;;;;;14.22;87.86;99130.64;1679916;83;21221;-89
2023/04/05 12:01:12;;;;;;;34.38;6.83;;;;;;;14.20;87.71;99133.59;1675709;82;21272;-89
2023/04/05 12:04:21;;;;;;;42.30;6.67;;;;;;;14.22;87.80;99133.39;1669863;83;21197;-90
2023/04/05 12:07:35;;;;;;;41.53;6.65;;;;;;;14.28;87.67;99133.30;1653371;85;21221;-82
2023/04/05 12:10:37;;;;;;;37.42;6.70;;;;;;;14.32;87.18;99124.06;1683317;83;21221;-88
2023/04/05 12:13:44;;;;;;;27.77;6.20;;;;;;;14.41;86.80;99119.94;1668954;83;21200;-81
2023/04/05 12:16:57;;;;;;;29.77;7.15;;;;;;;14.23;87.73;99122.15;1685999;83;21784;-87
2023/04/05 12:20:02;;;;;;;30.40;6.12;;;;;;;14.19;88.47;99120.09;1678368;83;21198;-81
2023/04/05 12:26:22;;;;;;;38.58;7.15;;;;;;;14.30;87.26;99134.44;1633450;85;21259;-85
2023/04/05 12:29:27;;;;;;;39.05;7.60;;;;;;;14.38;86.76;99138.27;1638235;85;21304;-85
2023/04/05 12:32:33;;;;;;;41.75;8.48;;;;;;;14.34;86.50;99141.17;1642799;84;21220;-85
2023/04/05 12:35:39;;;;;;;46.35;7.17;;;;;;;14.41;86.45;99141.11;1593439;86;21243;-85
2023/04/05 12:38:45;;;;;;;45.48;7.47;;;;;;;14.19;86.28;99139.34;1617888;86;21344;-85
2023/04/05 12:41:51;;;;;;;34.33;6.58;;;;;;;14.02;85.92;99134.45;1647565;85;21240;-85
2023/04/05 12:45:07;;;;;;;33.85;6.97;;;;;;;14.08;85.38;99132.69;1642152;85;21223;-86
2023/04/05 12:48:25;;;;;;;58.25;8.48;;;;;;;14.20;84.43;99135.52;1602751;86;21842;-86
2023/04/05 12:51:27;;;;;;;50.40;7.08;;;;;;;14.13;84.03;99131.47;1621897;87;21251;-86
2023/04/05 12:54:33;;;;;;;49.53;7.87;;;;;;;14.23;83.46;99141.94;1614533;85;21439;-86
2023/04/05 12:57:39;;;;;;;41.95;7.50;;;;;;;14.12;84.34;99141.33;1602391;87;21248;-85
2023/04/05 13:00:45;;;;;;;28.02;6.95;;;;;;;14.13;84.51;99136.13;1631609;85;21244;-86
2023/04/05 13:03:54;;;;;;;48.42;8.60;;;;;;;14.06;84.51;99135.64;1671802;83;21295;-86
2023/04/05 13:07:01;;;;;;;42.65;7.90;;;;;;;14.01;84.22;99142.36;1671488;83;21283;-85
2023/04/05 13:10:07;;;;;;;33.10;7.17;;;;;;;13.99;83.92;99143.14;1610989;86;21265;-85
2023/04/05 13:13:13;;;;;;;49.48;8.00;;;;;;;13.94;83.78;99140.23;1651554;84;21304;-85
2023/04/05 13:16:19;;;;;;;42.95;8.38;;;;;;;13.79;84.82;99143.88;1654248;84;21247;-85
2023/04/05 13:19:25;;;;;;;46.00;8.78;;;;;;;13.73;85.45;99146.96;1649207;84;21325;-85
2023/04/05 13:22:30;;;;;;;43.85;6.97;;;;;;;13.65;86.10;99145.05;1658665;84;21228;-85
2023/04/05 13:25:36;;;;;;;40.92;7.40;;;;;;;13.61;86.37;99139.16;1658685;84;21849;-85
2023/04/05 13:28:44;;;;;;;37.23;7.03;;;;;;;13.66;86.77;99149.48;1652375;83;21241;-85
2023/04/05 13:31:50;;;;;;;41.40;7.30;;;;;;;13.54;88.16;99151.56;1666949;83;21430;-84
2023/04/05 13:34:57;;;;;;;38.48;7.15;;;;;;;13.49;89.31;99147.27;1671510;83;21177;-84
2023/04/05 13:38:04;;;;;;;44.13;7.22;;;;;;;13.41;90.94;99150.31;1668608;83;21212;-85
2023/04/05 13:41:10;;;;;;;49.23;7.30;;;;;;;13.42;91.78;99150.62;1671491;84;21229;-84
2023/04/05 13:44:15;;;;;;;43.92;7.05;;;;;;;13.39;92.10;99142.81;1638166;84;21247;-86
2023/04/05 13:47:21;;;;;;;43.02;7.03;;;;;;;13.45;92.03;99131.45;1654823;84;21259;-85
2023/04/05 13:50:27;;;;;;;49.67;8.58;;;;;;;13.35;92.53;99131.95;1662197;84;21239;-85
2023/04/05 13:53:33;;;;;;;56.48;7.70;;;;;;;13.28;93.48;99123.78;1598540;86;21254;-85
2023/04/05 13:59:05;;;;;;;43.73;8.28;;;;;;;13.43;93.21;99125.36;1651203;84;21845;-85
2023/04/05 14:02:10;;;;;;;40.03;7.60;;;;;;;13.52;93.03;99126.23;1651837;84;21236;-86
2023/04/05 14:07:42;;;;;;;42.38;7.58;;;;;;;13.33;94.36;99123.11;1654270;83;21271;-85
2023/04/05 14:10:48;;;;;;;56.13;7.75;;;;;;;13.31;94.89;99119.73;1662496;83;21779;-85
2023/04/05 14:13:56;;;;;;;58.68;8.58;;;;;;;13.22;95.81;99121.06;1660646;84;21225;-85
2023/04/05 14:17:03;;;;;;;37.48;7.03;;;;;;;13.24;95.61;99117.59;1664333;83;21756;-87
2023/04/05 14:20:09;;;;;;;45.50;7.37;;;;;;;13.11;96.08;99128.09;1670659;83;21808;-85
2023/04/05 14:23:15;;;;;;;38.13;6.85;;;;;;;13.14;96.15;99121.33;1661974;81;21233;-85
2023/04/05 14:26:21;;;;;;;36.17;7.25;;;;;;;13.15;95.64;99120.25;1669833;84;21323;-84
2023/04/05 14:29:27;;;;;;;33.05;7.83;;;;;;;13.16;95.76;99121.94;1656832;83;21262;-85
2023/04/05 14:32:32;;;;;;;40.92;6.70;;;;;;;13.06;95.95;99115.56;1671439;83;21320;-84
2023/04/05 14:35:39;;;;;;;37.78;10.63;;;;;;;13.05;96.22;99122.95;1653532;83;21253;-84
2023/04/05 14:38:45;;;;;;;34.58;6.97;;;;;;;12.97;96.78;99127.33;1663701;83;21264;-85
2023/04/05 14:41:51;;;;;;;26.82;7.50;;;;;;;12.94;97.57;99130.53;1676047;83;21206;-84